Aces Wild — WDE3369 — position and weather

sailwx.info

Track history (hours):
 
Tides and Currents Weather Stations Pressure Air Temp Water Temp Dewpoint Dewpoint Depression Visibility Wind Speed Wind Dir Waves Ship Positions

Aces Wild

Owner: C & C Boats, Inc., Huntington Beach, CA. More information available from US FCC via Universal Licensing System and Coast Guard Vessel Documentation Center.

Last reported at 2018-Feb-18 06:17 UTC. Time now 2018-Feb-18 06:51 UTC.
Position N 34°26' W 119°55'.

Length 34 m.

Type: Passenger vessel. MMSI: 367338120.

Date/timePositionNaut miles runAvg speedWind from/ knotsBaromVisibWave heightAir tempDewpointWater temp
2018-Feb-18 06:17N 34°26' W 119°55'0 0.0
2018-Feb-18 06:00N 34°26' W 119°55'0 0.0
2018-Feb-18 05:30N 34°26' W 119°55'0 0.0
2018-Feb-18 04:57N 34°26' W 119°55'0 0.1
2018-Feb-18 02:23N 34°26' W 119°55'0 0.2
2018-Feb-18 01:55N 34°26' W 119°55'0 0.5
2018-Feb-18 01:28N 34°26' W 119°55'0 0.0
2018-Feb-18 00:46N 34°26' W 119°55'0 0.0
2018-Feb-18 00:22N 34°26' W 119°55'0 0.0
2018-Feb-17 23:37N 34°26' W 119°55'0 0.0
2018-Feb-17 23:28N 34°26' W 119°55'0 0.0
2018-Feb-17 22:58N 34°26' W 119°55'0 0.0
2018-Feb-17 22:27N 34°26' W 119°55'0 0.0
2018-Feb-17 21:56N 34°26' W 119°55'0 0.0
2018-Feb-17 20:27N 34°26' W 119°55'0 0.0
2018-Feb-17 20:00N 34°26' W 119°55'0 0.0
2018-Feb-17 19:17N 34°26' W 119°55'0 0.0
2018-Feb-17 18:42N 34°26' W 119°55'0 0.0
2018-Feb-17 18:15N 34°26' W 119°55'0 0.0
2018-Feb-17 17:46N 34°26' W 119°55'0 0.0
2018-Feb-17 17:22N 34°26' W 119°55'0 0.0
2018-Feb-17 16:25N 34°26' W 119°55'0 0.0
2018-Feb-17 15:19N 34°26' W 119°55'0 0.0
2018-Feb-17 14:58N 34°26' W 119°55'0 0.0
2018-Feb-17 14:17N 34°26' W 119°55'1 4.1
2018-Feb-17 14:00N 34°24' W 119°56'1 2.6
2018-Feb-17 13:30N 34°26' W 119°55'0 0.1
2018-Feb-17 10:44N 34°26' W 119°55'0 0.0
2018-Feb-17 10:29N 34°26' W 119°55'0 0.0
2018-Feb-17 09:41N 34°26' W 119°55'0 0.0
2018-Feb-17 09:19N 34°26' W 119°55'0 0.0
2018-Feb-17 08:52N 34°26' W 119°55'0 0.0
2018-Feb-17 08:28N 34°26' W 119°55'0 0.0
2018-Feb-17 07:55N 34°26' W 119°55'0 0.0
2018-Feb-17 07:13N 34°26' W 119°55'0 0.0
2018-Feb-17 07:00N 34°26' W 119°55'0 0.0
2018-Feb-17 04:59N 34°26' W 119°55'0 0.0
2018-Feb-17 04:08N 34°26' W 119°55'0 0.0
2018-Feb-17 03:50N 34°26' W 119°55'0 0.0
2018-Feb-17 03:24N 34°26' W 119°55'0 0.0
2018-Feb-17 02:20N 34°26' W 119°55'0 0.7
2018-Feb-17 01:49N 34°25' W 119°56'0 0.1
2018-Feb-16 21:45N 34°26' W 119°55'0 0.0
2018-Feb-16 17:51N 34°26' W 119°55'0 0.0
2018-Feb-16 17:27N 34°26' W 119°55'0 0.0
2018-Feb-16 17:00N 34°26' W 119°55'0 0.0
2018-Feb-16 15:55N 34°26' W 119°55'0 0.6
2018-Feb-16 15:28N 34°26' W 119°55'0 0.1
2018-Feb-16 14:52N 34°26' W 119°55'0 0.1
2018-Feb-16 14:25N 34°26' W 119°55'1 3.0
2018-Feb-16 13:57N 34°24' W 119°56'1 0.2
2018-Feb-16 08:24N 34°26' W 119°55'0 0.0
2018-Feb-16 07:58N 34°26' W 119°55'0 0.0
2018-Feb-16 05:17N 34°26' W 119°55'0 0.0
2018-Feb-16 04:20N 34°26' W 119°55'0 0.0
2018-Feb-16 03:59N 34°26' W 119°55'0 0.0
2018-Feb-16 03:18N 34°26' W 119°55'0 0.0
2018-Feb-16 02:48N 34°26' W 119°55'0 0.0
2018-Feb-16 02:20N 34°26' W 119°55'2 5.0
2018-Feb-16 01:53N 34°23' W 119°54'2 1.2
2018-Feb-16 00:03N 34°26' W 119°55'0 0.0
2018-Feb-15 23:04N 34°26' W 119°55'0 0.0
2018-Feb-15 22:15N 34°26' W 119°55'0 1.1
2018-Feb-15 22:00N 34°26' W 119°55'2 0.4
2018-Feb-15 16:18N 34°23' W 119°55'2 3.0
2018-Feb-15 15:29N 34°26' W 119°55'0 0.4
2018-Feb-15 14:51N 34°26' W 119°55'0 0.7
2018-Feb-15 14:25N 34°26' W 119°55'2 4.4
2018-Feb-15 13:59N 34°24' W 119°55'2 3.0
2018-Feb-15 13:27N 34°26' W 119°55'0 0.0
2018-Feb-15 11:21N 34°26' W 119°55'0 0.0
2018-Feb-15 07:38N 34°26' W 119°55'0 0.0
2018-Feb-15 04:58N 34°26' W 119°55'0 0.0
2018-Feb-15 02:34N 34°26' W 119°55'0 0.0
2018-Feb-15 02:19N 34°26' W 119°55'2 6.2
2018-Feb-15 01:57N 34°23' W 119°54'2 1.7
2018-Feb-15 00:35N 34°26' W 119°55'0 0.0
2018-Feb-14 22:07N 34°26' W 119°55'0 3.4
2018-Feb-14 22:00N 34°25' W 119°56'0 0.1
2018-Feb-14 18:57N 34°26' W 119°55'0 0.4
2018-Feb-14 18:16N 34°26' W 119°55'0 0.3
2018-Feb-14 17:59N 34°26' W 119°55'0 0.1
2018-Feb-14 17:30N 34°26' W 119°55'0 0.0
2018-Feb-14 16:52N 34°26' W 119°55'0 0.4
2018-Feb-14 16:15N 34°26' W 119°55'0 0.8
2018-Feb-14 15:55N 34°26' W 119°55'0 0.4
2018-Feb-14 15:19N 34°26' W 119°56'2 2.4
2018-Feb-14 14:39N 34°24' W 119°56'211.6
2018-Feb-14 14:30N 34°26' W 119°55'2 4.6
2018-Feb-14 13:59N 34°24' W 119°55'2 3.4
2018-Feb-14 13:23N 34°26' W 119°55'0 0.0
2018-Feb-14 10:28N 34°26' W 119°55'0 0.0
2018-Feb-14 07:25N 34°26' W 119°55'0 0.0
2018-Feb-14 07:00N 34°26' W 119°55'0 0.0
2018-Feb-14 05:33N 34°26' W 119°55'0 0.0
2018-Feb-14 05:07N 34°26' W 119°55'0 0.0
2018-Feb-14 04:41N 34°26' W 119°55'0 0.0
2018-Feb-14 04:17N 34°26' W 119°55'0 0.0
2018-Feb-14 02:30N 34°26' W 119°55'2 3.4
2018-Feb-14 01:53N 34°24' W 119°55'2 6.4
2018-Feb-14 01:30N 34°26' W 119°55'0 0.3
2018-Feb-14 00:34N 34°26' W 119°55'0 0.0
2018-Feb-14 00:28N 34°26' W 119°55'0 0.0
2018-Feb-13 23:57N 34°26' W 119°55'0 0.0
2018-Feb-13 23:30N 34°26' W 119°55'0 0.0
2018-Feb-13 23:00N 34°26' W 119°55'0 0.0
2018-Feb-13 22:29N 34°26' W 119°55'1 1.6
2018-Feb-13 21:59N 34°25' W 119°56'2 2.2
2018-Feb-13 21:12N 34°23' W 119°55'0 0.0
2018-Feb-13 20:59N 34°23' W 119°55'0 0.0
2018-Feb-13 16:34N 34°23' W 119°55'0 1.6
2018-Feb-13 16:16N 34°24' W 119°55'2 1.2
2018-Feb-13 14:47N 34°26' W 119°55'0 1.0
2018-Feb-13 14:30N 34°26' W 119°55'0 0.0
2018-Feb-13 13:53N 34°26' W 119°55'0 0.3
2018-Feb-13 12:45N 34°26' W 119°55'0 0.0
2018-Feb-13 12:18N 34°26' W 119°55'0 0.0
2018-Feb-13 11:57N 34°26' W 119°55'0 0.0
2018-Feb-13 11:22N 34°26' W 119°55'0 0.0
2018-Feb-13 05:12N 34°26' W 119°55'0 0.0
2018-Feb-13 02:23N 34°26' W 119°55'1 1.9
2018-Feb-13 01:45N 34°24' W 119°55'1 0.8
2018-Feb-13 00:07N 34°26' W 119°55'0 0.0
2018-Feb-12 23:54N 34°26' W 119°55'0 0.0
2018-Feb-12 22:27N 34°26' W 119°55'2 3.4
2018-Feb-12 21:47N 34°23' W 119°54'2 4.9
2018-Feb-12 21:19N 34°26' W 119°55'0 0.6
2018-Feb-12 20:53N 34°26' W 119°55'2 2.2
2018-Feb-12 19:46N 34°23' W 119°55'0 0.0
2018-Feb-12 19:05N 34°23' W 119°55'0 0.0
2018-Feb-12 18:58N 34°23' W 119°55'3 4.4
2018-Feb-12 18:24N 34°26' W 119°55'0 0.1
2018-Feb-12 15:00N 34°26' W 119°55'2 2.6
2018-Feb-12 14:07N 34°23' W 119°54'213.0
2018-Feb-12 13:58N 34°25' W 119°56'1 0.5
2018-Feb-12 12:49N 34°26' W 119°55'0 0.0
2018-Feb-12 09:42N 34°26' W 119°55'0 0.0
2018-Feb-12 04:25N 34°26' W 119°55'0 0.0
2018-Feb-12 03:19N 34°26' W 119°55'0 0.0
2018-Feb-12 02:55N 34°26' W 119°55'0 0.3
2018-Feb-12 02:24N 34°26' W 119°55'2 5.4
2018-Feb-12 01:59N 34°24' W 119°55'2 0.4
2018-Feb-11 21:27N 34°26' W 119°55'0 0.0
2018-Feb-11 20:48N 34°26' W 119°55'0 0.0
2018-Feb-11 20:27N 34°26' W 119°55'0 0.0
2018-Feb-11 16:33N 34°26' W 119°55'0 0.0
2018-Feb-11 16:24N 34°26' W 119°55'0 0.0
2018-Feb-11 14:19N 34°26' W 119°55'2 4.7
2018-Feb-11 13:50N 34°23' W 119°54'2 0.5
2018-Feb-11 09:39N 34°26' W 119°55'0 0.0
2018-Feb-11 05:50N 34°26' W 119°55'0 0.0
2018-Feb-11 05:09N 34°26' W 119°55'0 0.0
2018-Feb-11 04:39N 34°26' W 119°55'0 0.1
2018-Feb-11 02:23N 34°26' W 119°55'2 4.7
2018-Feb-11 01:59N 34°24' W 119°55'2 4.2
2018-Feb-11 01:30N 34°26' W 119°55'0 0.1
2018-Feb-10 20:15N 34°26' W 119°55'0 0.0
2018-Feb-10 18:48N 34°26' W 119°55'0 0.0
2018-Feb-10 18:24N 34°26' W 119°55'0 0.0
2018-Feb-10 17:39N 34°26' W 119°55'0 0.0
2018-Feb-10 15:32N 34°26' W 119°55'0 0.0
2018-Feb-10 14:30N 34°26' W 119°55'2 3.5
2018-Feb-10 13:51N 34°23' W 119°54'2 1.4
2018-Feb-10 12:11N 34°26' W 119°55'0 0.0
2018-Feb-10 11:54N 34°26' W 119°55'0 0.0
2018-Feb-10 11:18N 34°26' W 119°55'0 0.0
2018-Feb-10 10:43N 34°26' W 119°55'0 0.0
2018-Feb-10 10:24N 34°26' W 119°55'0 0.0
2018-Feb-10 09:57N 34°26' W 119°55'0 0.0
2018-Feb-10 08:49N 34°26' W 119°55'0 0.0
2018-Feb-10 08:00N 34°26' W 119°55'0 0.0
2018-Feb-10 06:56N 34°26' W 119°55'0 0.0
2018-Feb-10 06:13N 34°26' W 119°55'0 0.0
2018-Feb-10 05:55N 34°26' W 119°55'0 0.0
2018-Feb-10 05:28N 34°26' W 119°55'0 0.0
2018-Feb-10 04:58N 34°26' W 119°55'0 0.0
2018-Feb-10 04:13N 34°26' W 119°55'0 0.0
2018-Feb-10 04:00N 34°26' W 119°55'0 0.0
2018-Feb-10 03:24N 34°26' W 119°55'0 0.0
2018-Feb-10 02:58N 34°26' W 119°55'0 0.1
2018-Feb-10 02:30N 34°26' W 119°55'1 2.4
2018-Feb-10 01:58N 34°24' W 119°55'1 2.5
2018-Feb-10 01:27N 34°26' W 119°55'0 0.0
2018-Feb-10 00:54N 34°26' W 119°55'0 0.0
2018-Feb-10 00:30N 34°26' W 119°55'0 0.0
2018-Feb-09 23:53N 34°26' W 119°55'0 0.0
2018-Feb-09 23:24N 34°26' W 119°55'0 0.0
2018-Feb-09 22:58N 34°26' W 119°55'0 0.0
2018-Feb-09 22:40N 34°26' W 119°55'  
Track history (hours):
 
Tides and Currents Weather Stations Pressure Air Temp Water Temp Dewpoint Dewpoint Depression Visibility Wind Speed Wind Dir Waves Ship Positions

Aces Wild

Owner: C & C Boats, Inc., Huntington Beach, CA. More information available from US FCC via Universal Licensing System and Coast Guard Vessel Documentation Center.

Last reported at 2018-Feb-18 06:17 UTC. Time now 2018-Feb-18 06:51 UTC.
Position N 34°26' W 119°55'.

Length 34 m.

Type: Passenger vessel. MMSI: 367338120.

Date/timePositionNaut miles runAvg speedWind from/ knotsBaromVisibWave heightAir tempDewpointWater temp
2018-Feb-18 06:17N 34°26' W 119°55'0 0.0
2018-Feb-18 06:00N 34°26' W 119°55'0 0.0
2018-Feb-18 05:30N 34°26' W 119°55'0 0.0
2018-Feb-18 04:57N 34°26' W 119°55'0 0.1
2018-Feb-18 02:23N 34°26' W 119°55'0 0.2
2018-Feb-18 01:55N 34°26' W 119°55'0 0.5
2018-Feb-18 01:28N 34°26' W 119°55'0 0.0
2018-Feb-18 00:46N 34°26' W 119°55'0 0.0
2018-Feb-18 00:22N 34°26' W 119°55'0 0.0
2018-Feb-17 23:37N 34°26' W 119°55'0 0.0
2018-Feb-17 23:28N 34°26' W 119°55'0 0.0
2018-Feb-17 22:58N 34°26' W 119°55'0 0.0
2018-Feb-17 22:27N 34°26' W 119°55'0 0.0
2018-Feb-17 21:56N 34°26' W 119°55'0 0.0
2018-Feb-17 20:27N 34°26' W 119°55'0 0.0
2018-Feb-17 20:00N 34°26' W 119°55'0 0.0
2018-Feb-17 19:17N 34°26' W 119°55'0 0.0
2018-Feb-17 18:42N 34°26' W 119°55'0 0.0
2018-Feb-17 18:15N 34°26' W 119°55'0 0.0
2018-Feb-17 17:46N 34°26' W 119°55'0 0.0
2018-Feb-17 17:22N 34°26' W 119°55'0 0.0
2018-Feb-17 16:25N 34°26' W 119°55'0 0.0
2018-Feb-17 15:19N 34°26' W 119°55'0 0.0
2018-Feb-17 14:58N 34°26' W 119°55'0 0.0
2018-Feb-17 14:17N 34°26' W 119°55'1 4.1
2018-Feb-17 14:00N 34°24' W 119°56'1 2.6
2018-Feb-17 13:30N 34°26' W 119°55'0 0.1
2018-Feb-17 10:44N 34°26' W 119°55'0 0.0
2018-Feb-17 10:29N 34°26' W 119°55'0 0.0
2018-Feb-17 09:41N 34°26' W 119°55'0 0.0
2018-Feb-17 09:19N 34°26' W 119°55'0 0.0
2018-Feb-17 08:52N 34°26' W 119°55'0 0.0
2018-Feb-17 08:28N 34°26' W 119°55'0 0.0
2018-Feb-17 07:55N 34°26' W 119°55'0 0.0
2018-Feb-17 07:13N 34°26' W 119°55'0 0.0
2018-Feb-17 07:00N 34°26' W 119°55'0 0.0
2018-Feb-17 04:59N 34°26' W 119°55'0 0.0
2018-Feb-17 04:08N 34°26' W 119°55'0 0.0
2018-Feb-17 03:50N 34°26' W 119°55'0 0.0
2018-Feb-17 03:24N 34°26' W 119°55'0 0.0
2018-Feb-17 02:20N 34°26' W 119°55'0 0.7
2018-Feb-17 01:49N 34°25' W 119°56'0 0.1
2018-Feb-16 21:45N 34°26' W 119°55'0 0.0
2018-Feb-16 17:51N 34°26' W 119°55'0 0.0
2018-Feb-16 17:27N 34°26' W 119°55'0 0.0
2018-Feb-16 17:00N 34°26' W 119°55'0 0.0
2018-Feb-16 15:55N 34°26' W 119°55'0 0.6
2018-Feb-16 15:28N 34°26' W 119°55'0 0.1
2018-Feb-16 14:52N 34°26' W 119°55'0 0.1
2018-Feb-16 14:25N 34°26' W 119°55'1 3.0
2018-Feb-16 13:57N 34°24' W 119°56'1 0.2
2018-Feb-16 08:24N 34°26' W 119°55'0 0.0
2018-Feb-16 07:58N 34°26' W 119°55'0 0.0
2018-Feb-16 05:17N 34°26' W 119°55'0 0.0
2018-Feb-16 04:20N 34°26' W 119°55'0 0.0
2018-Feb-16 03:59N 34°26' W 119°55'0 0.0
2018-Feb-16 03:18N 34°26' W 119°55'0 0.0
2018-Feb-16 02:48N 34°26' W 119°55'0 0.0
2018-Feb-16 02:20N 34°26' W 119°55'2 5.0
2018-Feb-16 01:53N 34°23' W 119°54'2 1.2
2018-Feb-16 00:03N 34°26' W 119°55'0 0.0
2018-Feb-15 23:04N 34°26' W 119°55'0 0.0
2018-Feb-15 22:15N 34°26' W 119°55'0 1.1
2018-Feb-15 22:00N 34°26' W 119°55'2 0.4
2018-Feb-15 16:18N 34°23' W 119°55'2 3.0
2018-Feb-15 15:29N 34°26' W 119°55'0 0.4
2018-Feb-15 14:51N 34°26' W 119°55'0 0.7
2018-Feb-15 14:25N 34°26' W 119°55'2 4.4
2018-Feb-15 13:59N 34°24' W 119°55'2 3.0
2018-Feb-15 13:27N 34°26' W 119°55'0 0.0
2018-Feb-15 11:21N 34°26' W 119°55'0 0.0
2018-Feb-15 07:38N 34°26' W 119°55'0 0.0
2018-Feb-15 04:58N 34°26' W 119°55'0 0.0
2018-Feb-15 02:34N 34°26' W 119°55'0 0.0
2018-Feb-15 02:19N 34°26' W 119°55'2 6.2
2018-Feb-15 01:57N 34°23' W 119°54'2 1.7
2018-Feb-15 00:35N 34°26' W 119°55'0 0.0
2018-Feb-14 22:07N 34°26' W 119°55'0 3.4
2018-Feb-14 22:00N 34°25' W 119°56'0 0.1
2018-Feb-14 18:57N 34°26' W 119°55'0 0.4
2018-Feb-14 18:16N 34°26' W 119°55'0 0.3
2018-Feb-14 17:59N 34°26' W 119°55'0 0.1
2018-Feb-14 17:30N 34°26' W 119°55'0 0.0
2018-Feb-14 16:52N 34°26' W 119°55'0 0.4
2018-Feb-14 16:15N 34°26' W 119°55'0 0.8
2018-Feb-14 15:55N 34°26' W 119°55'0 0.4
2018-Feb-14 15:19N 34°26' W 119°56'2 2.4
2018-Feb-14 14:39N 34°24' W 119°56'211.6
2018-Feb-14 14:30N 34°26' W 119°55'2 4.6
2018-Feb-14 13:59N 34°24' W 119°55'2 3.4
2018-Feb-14 13:23N 34°26' W 119°55'0 0.0
2018-Feb-14 10:28N 34°26' W 119°55'0 0.0
2018-Feb-14 07:25N 34°26' W 119°55'0 0.0
2018-Feb-14 07:00N 34°26' W 119°55'0 0.0
2018-Feb-14 05:33N 34°26' W 119°55'0 0.0
2018-Feb-14 05:07N 34°26' W 119°55'0 0.0
2018-Feb-14 04:41N 34°26' W 119°55'0 0.0
2018-Feb-14 04:17N 34°26' W 119°55'0 0.0
2018-Feb-14 02:30N 34°26' W 119°55'2 3.4
2018-Feb-14 01:53N 34°24' W 119°55'2 6.4
2018-Feb-14 01:30N 34°26' W 119°55'0 0.3
2018-Feb-14 00:34N 34°26' W 119°55'0 0.0
2018-Feb-14 00:28N 34°26' W 119°55'0 0.0
2018-Feb-13 23:57N 34°26' W 119°55'0 0.0
2018-Feb-13 23:30N 34°26' W 119°55'0 0.0
2018-Feb-13 23:00N 34°26' W 119°55'0 0.0
2018-Feb-13 22:29N 34°26' W 119°55'1 1.6
2018-Feb-13 21:59N 34°25' W 119°56'2 2.2
2018-Feb-13 21:12N 34°23' W 119°55'0 0.0
2018-Feb-13 20:59N 34°23' W 119°55'0 0.0
2018-Feb-13 16:34N 34°23' W 119°55'0 1.6
2018-Feb-13 16:16N 34°24' W 119°55'2 1.2
2018-Feb-13 14:47N 34°26' W 119°55'0 1.0
2018-Feb-13 14:30N 34°26' W 119°55'0 0.0
2018-Feb-13 13:53N 34°26' W 119°55'0 0.3
2018-Feb-13 12:45N 34°26' W 119°55'0 0.0
2018-Feb-13 12:18N 34°26' W 119°55'0 0.0
2018-Feb-13 11:57N 34°26' W 119°55'0 0.0
2018-Feb-13 11:22N 34°26' W 119°55'0 0.0
2018-Feb-13 05:12N 34°26' W 119°55'0 0.0
2018-Feb-13 02:23N 34°26' W 119°55'1 1.9
2018-Feb-13 01:45N 34°24' W 119°55'1 0.8
2018-Feb-13 00:07N 34°26' W 119°55'0 0.0
2018-Feb-12 23:54N 34°26' W 119°55'0 0.0
2018-Feb-12 22:27N 34°26' W 119°55'2 3.4
2018-Feb-12 21:47N 34°23' W 119°54'2 4.9
2018-Feb-12 21:19N 34°26' W 119°55'0 0.6
2018-Feb-12 20:53N 34°26' W 119°55'2 2.2
2018-Feb-12 19:46N 34°23' W 119°55'0 0.0
2018-Feb-12 19:05N 34°23' W 119°55'0 0.0
2018-Feb-12 18:58N 34°23' W 119°55'3 4.4
2018-Feb-12 18:24N 34°26' W 119°55'0 0.1
2018-Feb-12 15:00N 34°26' W 119°55'2 2.6
2018-Feb-12 14:07N 34°23' W 119°54'213.0
2018-Feb-12 13:58N 34°25' W 119°56'1 0.5
2018-Feb-12 12:49N 34°26' W 119°55'0 0.0
2018-Feb-12 09:42N 34°26' W 119°55'0 0.0
2018-Feb-12 04:25N 34°26' W 119°55'0 0.0
2018-Feb-12 03:19N 34°26' W 119°55'0 0.0
2018-Feb-12 02:55N 34°26' W 119°55'0 0.3
2018-Feb-12 02:24N 34°26' W 119°55'2 5.4
2018-Feb-12 01:59N 34°24' W 119°55'2 0.4
2018-Feb-11 21:27N 34°26' W 119°55'0 0.0
2018-Feb-11 20:48N 34°26' W 119°55'0 0.0
2018-Feb-11 20:27N 34°26' W 119°55'0 0.0
2018-Feb-11 16:33N 34°26' W 119°55'0 0.0
2018-Feb-11 16:24N 34°26' W 119°55'0 0.0
2018-Feb-11 14:19N 34°26' W 119°55'2 4.7
2018-Feb-11 13:50N 34°23' W 119°54'2 0.5
2018-Feb-11 09:39N 34°26' W 119°55'0 0.0
2018-Feb-11 05:50N 34°26' W 119°55'0 0.0
2018-Feb-11 05:09N 34°26' W 119°55'0 0.0
2018-Feb-11 04:39N 34°26' W 119°55'0 0.1
2018-Feb-11 02:23N 34°26' W 119°55'2 4.7
2018-Feb-11 01:59N 34°24' W 119°55'2 4.2
2018-Feb-11 01:30N 34°26' W 119°55'0 0.1
2018-Feb-10 20:15N 34°26' W 119°55'0 0.0
2018-Feb-10 18:48N 34°26' W 119°55'0 0.0
2018-Feb-10 18:24N 34°26' W 119°55'0 0.0
2018-Feb-10 17:39N 34°26' W 119°55'0 0.0
2018-Feb-10 15:32N 34°26' W 119°55'0 0.0
2018-Feb-10 14:30N 34°26' W 119°55'2 3.5
2018-Feb-10 13:51N 34°23' W 119°54'2 1.4
2018-Feb-10 12:11N 34°26' W 119°55'0 0.0
2018-Feb-10 11:54N 34°26' W 119°55'0 0.0
2018-Feb-10 11:18N 34°26' W 119°55'0 0.0
2018-Feb-10 10:43N 34°26' W 119°55'0 0.0
2018-Feb-10 10:24N 34°26' W 119°55'0 0.0
2018-Feb-10 09:57N 34°26' W 119°55'0 0.0
2018-Feb-10 08:49N 34°26' W 119°55'0 0.0
2018-Feb-10 08:00N 34°26' W 119°55'0 0.0
2018-Feb-10 06:56N 34°26' W 119°55'0 0.0
2018-Feb-10 06:13N 34°26' W 119°55'0 0.0
2018-Feb-10 05:55N 34°26' W 119°55'0 0.0
2018-Feb-10 05:28N 34°26' W 119°55'0 0.0
2018-Feb-10 04:58N 34°26' W 119°55'0 0.0
2018-Feb-10 04:13N 34°26' W 119°55'0 0.0
2018-Feb-10 04:00N 34°26' W 119°55'0 0.0
2018-Feb-10 03:24N 34°26' W 119°55'0 0.0
2018-Feb-10 02:58N 34°26' W 119°55'0 0.1
2018-Feb-10 02:30N 34°26' W 119°55'1 2.4
2018-Feb-10 01:58N 34°24' W 119°55'1 2.5
2018-Feb-10 01:27N 34°26' W 119°55'0 0.0
2018-Feb-10 00:54N 34°26' W 119°55'0 0.0
2018-Feb-10 00:30N 34°26' W 119°55'0 0.0
2018-Feb-09 23:53N 34°26' W 119°55'0 0.0
2018-Feb-09 23:24N 34°26' W 119°55'0 0.0
2018-Feb-09 22:58N 34°26' W 119°55'0 0.0
2018-Feb-09 22:40N 34°26' W 119°55'  

Dump ship's entire track history